CheckWX is a tool to help pilots better visualize weather data.  It is not intended as a substitute for an official pre-flight weather briefing.

03:26:55 UTC

CYFO METAR
Flin Flon Airport
Flin Flon, Canada
Current

4 hours ago

CYFO 262300Z 22010G17KT 180V300 15SM SCT060 15/M01 A3015 RMK CU4 LAST OBS/NEXT 271100UTC SLP223 DENSITY ALT 1000FT
Observed
May-26 @ 23:00 UTC
Wind
  • 220° at 10 KTS
  • Gusting to 17 KTS
Visibility
15 SM
Flight Rules
VFR
Cloud Levels
  • Scattered at 6,000' AGL
Temperature
15°C / 59°F
Dewpoint
-1°C / 30°F
Humidity
34%
Altimeter
30.15" Hg
Pressure
1021.02 hPa
Previous

5 hours ago

CYFO 262200Z 24009G17KT 190V260 15SM SCT065 15/M02 A3017 RMK CU4 SLP227 DENSITY ALT 1000FT
Observed
May-26 @ 22:00 UTC
Wind
  • 240° at 9 KTS
  • Gusting to 17 KTS
Visibility
15 SM
Flight Rules
VFR
Cloud Levels
  • Scattered at 6,500' AGL
Temperature
15°C / 59°F
Dewpoint
-2°C / 28°F
Humidity
31%
Altimeter
30.17" Hg
Pressure
1021.72 hPa
Previous

6 hours ago

CYFO 262100Z 19007KT 170V250 15SM SCT054 14/00 A3019 RMK CU4 SLP235
Observed
May-26 @ 21:00 UTC
Wind
  • 190° at 7 KTS
Visibility
15 SM
Flight Rules
VFR
Cloud Levels
  • Scattered at 5,400' AGL
Temperature
14°C / 57°F
Dewpoint
C / 32°F
Humidity
39%
Altimeter
30.19" Hg
Pressure
1022.32 hPa